sensor_id;sensor_type;location;lat;lon;timestamp;P1;durP1;ratioP1;P2;durP2;ratioP2
16822;SDS011;8528;49.976;11.858;2022-08-04T00:11:19;2.97;;;2.77;;
16822;SDS011;8528;49.976;11.858;2022-08-04T00:14:00;3.70;;;3.10;;
16822;SDS011;8528;49.976;11.858;2022-08-04T00:16:37;3.50;;;3.20;;
16822;SDS011;8528;49.976;11.858;2022-08-04T00:19:10;2.87;;;2.60;;
16822;SDS011;8528;49.976;11.858;2022-08-04T00:21:41;3.03;;;2.70;;
16822;SDS011;8528;49.976;11.858;2022-08-04T00:24:12;4.40;;;2.97;;
16822;SDS011;8528;49.976;11.858;2022-08-04T00:26:41;3.00;;;2.80;;
16822;SDS011;8528;49.976;11.858;2022-08-04T00:29:09;2.93;;;2.70;;
16822;SDS011;8528;49.976;11.858;2022-08-04T00:31:36;3.07;;;2.77;;
16822;SDS011;8528;49.976;11.858;2022-08-04T00:34:26;4.33;;;3.10;;
16822;SDS011;8528;49.976;11.858;2022-08-04T00:36:54;2.93;;;2.70;;
16822;SDS011;8528;49.976;11.858;2022-08-04T00:39:26;3.23;;;2.90;;
16822;SDS011;8528;49.976;11.858;2022-08-04T00:41:58;3.47;;;2.60;;
16822;SDS011;8528;49.976;11.858;2022-08-04T00:45:47;3.57;;;2.57;;
16822;SDS011;8528;49.976;11.858;2022-08-04T00:48:48;3.00;;;2.70;;
16822;SDS011;8528;49.976;11.858;2022-08-04T00:58:10;3.00;;;2.80;;
16822;SDS011;8528;49.976;11.858;2022-08-04T01:01:03;3.93;;;3.17;;
16822;SDS011;8528;49.976;11.858;2022-08-04T01:12:26;3.53;;;2.80;;
16822;SDS011;8528;49.976;11.858;2022-08-04T01:18:05;2.80;;;2.60;;
16822;SDS011;8528;49.976;11.858;2022-08-04T01:20:47;3.10;;;2.80;;
16822;SDS011;8528;49.976;11.858;2022-08-04T01:34:28;2.77;;;2.57;;
16822;SDS011;8528;49.976;11.858;2022-08-04T01:39:59;3.00;;;2.70;;
16822;SDS011;8528;49.976;11.858;2022-08-04T01:42:27;2.87;;;2.67;;
16822;SDS011;8528;49.976;11.858;2022-08-04T01:45:04;3.47;;;2.50;;
16822;SDS011;8528;49.976;11.858;2022-08-04T01:47:33;3.43;;;2.87;;
16822;SDS011;8528;49.976;11.858;2022-08-04T01:50:06;3.00;;;2.70;;
16822;SDS011;8528;49.976;11.858;2022-08-04T01:52:36;3.43;;;3.00;;
16822;SDS011;8528;49.976;11.858;2022-08-04T01:55:06;3.60;;;2.70;;
16822;SDS011;8528;49.976;11.858;2022-08-04T01:57:42;3.43;;;2.43;;
16822;SDS011;8528;49.976;11.858;2022-08-04T02:00:16;3.13;;;2.70;;
16822;SDS011;8528;49.976;11.858;2022-08-04T02:02:48;3.10;;;2.80;;
16822;SDS011;8528;49.976;11.858;2022-08-04T02:05:19;3.20;;;2.90;;
16822;SDS011;8528;49.976;11.858;2022-08-04T02:10:52;3.10;;;2.80;;
16822;SDS011;8528;49.976;11.858;2022-08-04T02:13:23;2.90;;;2.70;;
16822;SDS011;8528;49.976;11.858;2022-08-04T02:16:03;3.07;;;2.77;;
16822;SDS011;8528;49.976;11.858;2022-08-04T02:21:46;3.20;;;2.90;;
16822;SDS011;8528;49.976;11.858;2022-08-04T02:24:24;3.53;;;3.17;;
16822;SDS011;8528;49.976;11.858;2022-08-04T02:26:57;3.20;;;2.90;;
16822;SDS011;8528;49.976;11.858;2022-08-04T02:29:47;3.27;;;2.90;;
16822;SDS011;8528;49.976;11.858;2022-08-04T02:32:29;3.33;;;3.03;;
16822;SDS011;8528;49.976;11.858;2022-08-04T02:35:07;2.80;;;2.60;;
16822;SDS011;8528;49.976;11.858;2022-08-04T02:37:51;3.03;;;2.73;;
16822;SDS011;8528;49.976;11.858;2022-08-04T02:40:43;3.47;;;3.10;;
16822;SDS011;8528;49.976;11.858;2022-08-04T02:43:14;4.13;;;3.13;;
16822;SDS011;8528;49.976;11.858;2022-08-04T02:46:03;3.90;;;2.97;;
16822;SDS011;8528;49.976;11.858;2022-08-04T02:48:43;3.30;;;3.00;;
16822;SDS011;8528;49.976;11.858;2022-08-04T02:51:13;3.50;;;3.20;;
16822;SDS011;8528;49.976;11.858;2022-08-04T02:53:42;3.10;;;2.80;;
16822;SDS011;8528;49.976;11.858;2022-08-04T02:56:10;5.00;;;3.07;;
16822;SDS011;8528;49.976;11.858;2022-08-04T02:58:40;3.80;;;2.90;;
16822;SDS011;8528;49.976;11.858;2022-08-04T03:01:08;3.93;;;3.00;;
16822;SDS011;8528;49.976;11.858;2022-08-04T03:03:39;3.30;;;2.93;;
16822;SDS011;8528;49.976;11.858;2022-08-04T03:09:49;4.30;;;3.07;;
16822;SDS011;8528;49.976;11.858;2022-08-04T03:12:32;3.10;;;2.80;;
16822;SDS011;8528;49.976;11.858;2022-08-04T03:47:27;3.83;;;3.47;;
16822;SDS011;8528;49.976;11.858;2022-08-04T03:50:11;4.97;;;4.07;;
16822;SDS011;8528;49.976;11.858;2022-08-04T04:01:59;3.10;;;2.90;;
16822;SDS011;8528;49.976;11.858;2022-08-04T04:05:54;3.23;;;2.93;;
16822;SDS011;8528;49.976;11.858;2022-08-04T04:27:29;3.60;;;3.30;;
16822;SDS011;8528;49.976;11.858;2022-08-04T04:40:59;3.90;;;3.20;;
16822;SDS011;8528;49.976;11.858;2022-08-04T04:52:13;5.70;;;2.90;;
16822;SDS011;8528;49.976;11.858;2022-08-04T04:55:04;4.90;;;2.77;;
16822;SDS011;8528;49.976;11.858;2022-08-04T04:57:38;3.23;;;3.00;;
16822;SDS011;8528;49.976;11.858;2022-08-04T05:00:19;3.63;;;3.33;;
16822;SDS011;8528;49.976;11.858;2022-08-04T05:14:17;10.90;;;8.90;;
16822;SDS011;8528;49.976;11.858;2022-08-04T05:20:09;6.97;;;5.77;;
16822;SDS011;8528;49.976;11.858;2022-08-04T05:22:47;4.20;;;3.80;;
16822;SDS011;8528;49.976;11.858;2022-08-04T05:25:42;3.63;;;3.33;;
16822;SDS011;8528;49.976;11.858;2022-08-04T05:28:32;6.20;;;3.67;;
16822;SDS011;8528;49.976;11.858;2022-08-04T05:31:00;4.50;;;3.70;;
16822;SDS011;8528;49.976;11.858;2022-08-04T05:33:37;4.73;;;3.80;;
16822;SDS011;8528;49.976;11.858;2022-08-04T05:36:10;5.50;;;4.23;;
16822;SDS011;8528;49.976;11.858;2022-08-04T05:38:53;6.73;;;3.60;;
16822;SDS011;8528;49.976;11.858;2022-08-04T05:41:25;6.33;;;3.90;;
16822;SDS011;8528;49.976;11.858;2022-08-04T05:44:11;3.67;;;3.27;;
16822;SDS011;8528;49.976;11.858;2022-08-04T05:46:43;3.20;;;2.90;;
16822;SDS011;8528;49.976;11.858;2022-08-04T05:49:20;4.17;;;2.93;;
16822;SDS011;8528;49.976;11.858;2022-08-04T05:51:50;3.57;;;3.27;;
16822;SDS011;8528;49.976;11.858;2022-08-04T05:54:20;3.20;;;2.90;;
16822;SDS011;8528;49.976;11.858;2022-08-04T05:56:48;3.43;;;3.13;;
16822;SDS011;8528;49.976;11.858;2022-08-04T05:59:16;3.30;;;3.00;;
16822;SDS011;8528;49.976;11.858;2022-08-04T06:01:47;3.50;;;2.83;;
16822;SDS011;8528;49.976;11.858;2022-08-04T06:04:22;3.30;;;3.00;;
16822;SDS011;8528;49.976;11.858;2022-08-04T06:06:53;5.60;;;3.27;;
16822;SDS011;8528;49.976;11.858;2022-08-04T06:09:23;3.90;;;3.13;;
16822;SDS011;8528;49.976;11.858;2022-08-04T06:11:51;4.23;;;2.80;;
16822;SDS011;8528;49.976;11.858;2022-08-04T06:14:34;3.87;;;3.00;;
16822;SDS011;8528;49.976;11.858;2022-08-04T06:17:06;6.30;;;3.10;;
16822;SDS011;8528;49.976;11.858;2022-08-04T06:19:55;3.30;;;3.00;;
16822;SDS011;8528;49.976;11.858;2022-08-04T06:22:47;2.60;;;2.40;;
16822;SDS011;8528;49.976;11.858;2022-08-04T06:25:20;5.10;;;3.10;;
16822;SDS011;8528;49.976;11.858;2022-08-04T06:27:50;3.03;;;2.60;;
16822;SDS011;8528;49.976;11.858;2022-08-04T06:30:25;2.70;;;2.50;;
16822;SDS011;8528;49.976;11.858;2022-08-04T06:32:53;2.33;;;2.13;;
16822;SDS011;8528;49.976;11.858;2022-08-04T06:35:30;2.50;;;2.30;;
16822;SDS011;8528;49.976;11.858;2022-08-04T06:37:57;2.97;;;2.30;;
16822;SDS011;8528;49.976;11.858;2022-08-04T06:40:27;3.27;;;2.57;;
16822;SDS011;8528;49.976;11.858;2022-08-04T06:43:05;3.33;;;2.30;;
16822;SDS011;8528;49.976;11.858;2022-08-04T06:45:33;2.50;;;2.30;;
16822;SDS011;8528;49.976;11.858;2022-08-04T06:48:03;3.87;;;2.50;;
16822;SDS011;8528;49.976;11.858;2022-08-04T06:50:35;3.63;;;2.60;;
16822;SDS011;8528;49.976;11.858;2022-08-04T06:53:25;2.40;;;2.20;;
16822;SDS011;8528;49.976;11.858;2022-08-04T06:55:55;2.30;;;2.10;;
16822;SDS011;8528;49.976;11.858;2022-08-04T06:58:24;13.93;;;5.57;;
16822;SDS011;8528;49.976;11.858;2022-08-04T07:00:52;5.17;;;2.60;;
16822;SDS011;8528;49.976;11.858;2022-08-04T07:03:20;4.20;;;2.60;;
16822;SDS011;8528;49.976;11.858;2022-08-04T07:05:48;6.27;;;2.83;;
16822;SDS011;8528;49.976;11.858;2022-08-04T07:08:16;2.50;;;2.30;;
16822;SDS011;8528;49.976;11.858;2022-08-04T07:10:44;3.53;;;2.50;;
16822;SDS011;8528;49.976;11.858;2022-08-04T07:13:14;2.93;;;2.37;;
16822;SDS011;8528;49.976;11.858;2022-08-04T07:15:44;2.87;;;2.20;;
16822;SDS011;8528;49.976;11.858;2022-08-04T07:18:11;2.20;;;1.90;;
16822;SDS011;8528;49.976;11.858;2022-08-04T07:20:42;2.60;;;2.40;;
16822;SDS011;8528;49.976;11.858;2022-08-04T07:23:10;3.07;;;2.37;;
16822;SDS011;8528;49.976;11.858;2022-08-04T07:25:48;2.43;;;2.20;;
16822;SDS011;8528;49.976;11.858;2022-08-04T07:28:36;3.73;;;2.80;;
16822;SDS011;8528;49.976;11.858;2022-08-04T07:31:06;3.88;;;2.50;;
16822;SDS011;8528;49.976;11.858;2022-08-04T07:34:00;3.67;;;2.40;;
16822;SDS011;8528;49.976;11.858;2022-08-04T07:36:47;2.80;;;2.25;;
16822;SDS011;8528;49.976;11.858;2022-08-04T07:39:22;2.50;;;2.30;;
16822;SDS011;8528;49.976;11.858;2022-08-04T07:41:54;3.10;;;2.20;;
16822;SDS011;8528;49.976;11.858;2022-08-04T07:44:25;3.00;;;2.53;;
16822;SDS011;8528;49.976;11.858;2022-08-04T07:46:53;2.50;;;2.30;;
16822;SDS011;8528;49.976;11.858;2022-08-04T07:49:22;5.18;;;1.92;;
16822;SDS011;8528;49.976;11.858;2022-08-04T07:52:14;1.80;;;1.70;;
16822;SDS011;8528;49.976;11.858;2022-08-04T07:54:41;2.15;;;1.85;;
16822;SDS011;8528;49.976;11.858;2022-08-04T07:57:11;2.28;;;2.08;;
16822;SDS011;8528;49.976;11.858;2022-08-04T07:59:58;2.10;;;1.70;;
16822;SDS011;8528;49.976;11.858;2022-08-04T08:02:25;2.95;;;2.30;;
16822;SDS011;8528;49.976;11.858;2022-08-04T08:04:53;1.92;;;1.83;;
16822;SDS011;8528;49.976;11.858;2022-08-04T08:07:20;1.90;;;1.80;;
16822;SDS011;8528;49.976;11.858;2022-08-04T08:09:47;4.65;;;2.13;;
16822;SDS011;8528;49.976;11.858;2022-08-04T08:12:14;1.80;;;1.70;;
16822;SDS011;8528;49.976;11.858;2022-08-04T08:15:01;2.10;;;1.90;;
16822;SDS011;8528;49.976;11.858;2022-08-04T08:17:29;3.22;;;1.98;;
16822;SDS011;8528;49.976;11.858;2022-08-04T08:20:16;2.28;;;2.08;;
16822;SDS011;8528;49.976;11.858;2022-08-04T08:22:55;2.22;;;2.10;;
16822;SDS011;8528;49.976;11.858;2022-08-04T08:25:24;2.25;;;2.15;;
16822;SDS011;8528;49.976;11.858;2022-08-04T08:27:52;2.58;;;2.38;;
16822;SDS011;8528;49.976;11.858;2022-08-04T08:30:21;3.47;;;1.95;;
16822;SDS011;8528;49.976;11.858;2022-08-04T08:32:58;2.53;;;2.33;;
16822;SDS011;8528;49.976;11.858;2022-08-04T08:35:28;2.65;;;1.90;;
16822;SDS011;8528;49.976;11.858;2022-08-04T08:38:04;4.22;;;2.05;;
16822;SDS011;8528;49.976;11.858;2022-08-04T08:53:26;3.63;;;2.15;;
16822;SDS011;8528;49.976;11.858;2022-08-04T09:07:21;3.70;;;2.20;;
16822;SDS011;8528;49.976;11.858;2022-08-04T09:10:16;2.70;;;2.17;;
16822;SDS011;8528;49.976;11.858;2022-08-04T09:12:56;2.25;;;2.13;;
16822;SDS011;8528;49.976;11.858;2022-08-04T09:18:36;3.75;;;2.40;;
16822;SDS011;8528;49.976;11.858;2022-08-04T09:23:56;2.67;;;2.47;;
16822;SDS011;8528;49.976;11.858;2022-08-04T09:40:58;2.15;;;1.95;;
16822;SDS011;8528;49.976;11.858;2022-08-04T09:44:13;2.58;;;2.38;;
16822;SDS011;8528;49.976;11.858;2022-08-04T09:47:18;2.80;;;2.30;;
16822;SDS011;8528;49.976;11.858;2022-08-04T09:50:25;3.65;;;2.33;;
16822;SDS011;8528;49.976;11.858;2022-08-04T10:01:20;4.03;;;2.30;;
16822;SDS011;8528;49.976;11.858;2022-08-04T10:03:50;3.92;;;2.03;;
16822;SDS011;8528;49.976;11.858;2022-08-04T10:09:47;2.42;;;2.22;;
16822;SDS011;8528;49.976;11.858;2022-08-04T10:12:37;2.03;;;1.90;;
16822;SDS011;8528;49.976;11.858;2022-08-04T10:15:30;2.50;;;2.20;;
16822;SDS011;8528;49.976;11.858;2022-08-04T10:24:06;5.97;;;2.53;;
16822;SDS011;8528;49.976;11.858;2022-08-04T10:27:01;4.43;;;2.17;;
16822;SDS011;8528;49.976;11.858;2022-08-04T10:29:44;2.42;;;2.22;;
16822;SDS011;8528;49.976;11.858;2022-08-04T10:35:09;3.55;;;1.88;;
16822;SDS011;8528;49.976;11.858;2022-08-04T10:46:08;2.40;;;2.20;;
16822;SDS011;8528;49.976;11.858;2022-08-04T10:48:50;2.40;;;2.20;;
16822;SDS011;8528;49.976;11.858;2022-08-04T10:57:27;3.20;;;2.00;;
16822;SDS011;8528;49.976;11.858;2022-08-04T11:00:05;2.80;;;2.10;;
16822;SDS011;8528;49.976;11.858;2022-08-04T11:05:28;2.20;;;2.00;;
16822;SDS011;8528;49.976;11.858;2022-08-04T11:07:58;3.05;;;2.10;;
16822;SDS011;8528;49.976;11.858;2022-08-04T11:10:34;4.45;;;2.35;;
16822;SDS011;8528;49.976;11.858;2022-08-04T11:13:10;2.70;;;2.40;;
16822;SDS011;8528;49.976;11.858;2022-08-04T11:15:55;3.35;;;2.22;;
16822;SDS011;8528;49.976;11.858;2022-08-04T11:21:08;2.13;;;1.92;;
16822;SDS011;8528;49.976;11.858;2022-08-04T11:23:45;7.07;;;3.30;;
16822;SDS011;8528;49.976;11.858;2022-08-04T11:26:23;2.10;;;2.00;;
16822;SDS011;8528;49.976;11.858;2022-08-04T11:32:16;3.08;;;2.08;;
16822;SDS011;8528;49.976;11.858;2022-08-04T11:34:47;2.40;;;2.20;;
16822;SDS011;8528;49.976;11.858;2022-08-04T11:37:24;2.30;;;2.10;;
16822;SDS011;8528;49.976;11.858;2022-08-04T11:40:06;3.05;;;2.28;;
16822;SDS011;8528;49.976;11.858;2022-08-04T11:42:40;2.15;;;1.98;;
16822;SDS011;8528;49.976;11.858;2022-08-04T11:48:31;2.42;;;2.20;;
16822;SDS011;8528;49.976;11.858;2022-08-04T11:51:02;2.63;;;2.17;;
16822;SDS011;8528;49.976;11.858;2022-08-04T11:53:37;2.45;;;2.00;;
16822;SDS011;8528;49.976;11.858;2022-08-04T11:56:06;2.90;;;2.45;;
16822;SDS011;8528;49.976;11.858;2022-08-04T11:58:40;4.38;;;2.30;;
16822;SDS011;8528;49.976;11.858;2022-08-04T12:04:09;2.30;;;2.10;;
16822;SDS011;8528;49.976;11.858;2022-08-04T12:15:29;2.40;;;2.20;;
16822;SDS011;8528;49.976;11.858;2022-08-04T12:20:44;3.17;;;2.30;;
16822;SDS011;8528;49.976;11.858;2022-08-04T12:23:23;2.42;;;2.20;;
16822;SDS011;8528;49.976;11.858;2022-08-04T12:25:56;2.42;;;2.20;;
16822;SDS011;8528;49.976;11.858;2022-08-04T12:28:38;2.33;;;2.13;;
16822;SDS011;8528;49.976;11.858;2022-08-04T12:31:32;3.30;;;3.00;;
16822;SDS011;8528;49.976;11.858;2022-08-04T12:34:07;2.63;;;2.33;;
16822;SDS011;8528;49.976;11.858;2022-08-04T12:36:45;2.58;;;1.90;;
16822;SDS011;8528;49.976;11.858;2022-08-04T12:39:32;2.30;;;2.10;;
16822;SDS011;8528;49.976;11.858;2022-08-04T12:42:27;2.15;;;1.95;;
16822;SDS011;8528;49.976;11.858;2022-08-04T12:44:55;3.17;;;2.20;;
16822;SDS011;8528;49.976;11.858;2022-08-04T12:47:26;3.80;;;2.13;;
16822;SDS011;8528;49.976;11.858;2022-08-04T12:49:56;2.63;;;2.42;;
16822;SDS011;8528;49.976;11.858;2022-08-04T12:52:50;9.55;;;2.40;;
16822;SDS011;8528;49.976;11.858;2022-08-04T12:55:31;2.05;;;1.95;;
16822;SDS011;8528;49.976;11.858;2022-08-04T12:58:00;2.00;;;1.90;;
16822;SDS011;8528;49.976;11.858;2022-08-04T13:00:33;2.28;;;2.08;;
16822;SDS011;8528;49.976;11.858;2022-08-04T13:03:10;6.78;;;2.45;;
16822;SDS011;8528;49.976;11.858;2022-08-04T13:05:39;3.40;;;2.30;;
16822;SDS011;8528;49.976;11.858;2022-08-04T13:08:07;2.70;;;2.50;;
16822;SDS011;8528;49.976;11.858;2022-08-04T13:10:40;8.55;;;3.00;;
16822;SDS011;8528;49.976;11.858;2022-08-04T13:13:15;3.63;;;2.55;;
16822;SDS011;8528;49.976;11.858;2022-08-04T13:15:54;2.80;;;2.55;;
16822;SDS011;8528;49.976;11.858;2022-08-04T13:18:23;2.45;;;2.25;;
16822;SDS011;8528;49.976;11.858;2022-08-04T13:21:06;3.60;;;2.38;;
16822;SDS011;8528;49.976;11.858;2022-08-04T13:23:47;2.70;;;2.50;;
16822;SDS011;8528;49.976;11.858;2022-08-04T13:26:47;2.75;;;2.22;;
16822;SDS011;8528;49.976;11.858;2022-08-04T13:29:21;2.50;;;2.30;;
16822;SDS011;8528;49.976;11.858;2022-08-04T13:32:10;2.45;;;2.25;;
16822;SDS011;8528;49.976;11.858;2022-08-04T13:34:45;2.70;;;2.50;;
16822;SDS011;8528;49.976;11.858;2022-08-04T13:37:19;2.63;;;2.17;;
16822;SDS011;8528;49.976;11.858;2022-08-04T13:39:52;2.50;;;2.30;;
16822;SDS011;8528;49.976;11.858;2022-08-04T13:42:21;3.25;;;2.58;;
16822;SDS011;8528;49.976;11.858;2022-08-04T13:44:52;2.45;;;2.30;;
16822;SDS011;8528;49.976;11.858;2022-08-04T13:47:29;2.70;;;2.50;;
16822;SDS011;8528;49.976;11.858;2022-08-04T13:52:41;3.15;;;2.05;;
16822;SDS011;8528;49.976;11.858;2022-08-04T13:58:10;2.28;;;2.05;;
16822;SDS011;8528;49.976;11.858;2022-08-04T14:00:46;2.60;;;2.30;;
16822;SDS011;8528;49.976;11.858;2022-08-04T14:03:21;2.72;;;2.03;;
16822;SDS011;8528;49.976;11.858;2022-08-04T14:08:59;2.40;;;2.20;;
16822;SDS011;8528;49.976;11.858;2022-08-04T14:11:32;2.20;;;2.03;;
16822;SDS011;8528;49.976;11.858;2022-08-04T14:14:21;2.75;;;2.13;;
16822;SDS011;8528;49.976;11.858;2022-08-04T14:16:59;3.15;;;2.42;;
16822;SDS011;8528;49.976;11.858;2022-08-04T14:19:47;3.95;;;2.17;;
16822;SDS011;8528;49.976;11.858;2022-08-04T14:22:35;3.67;;;2.03;;
16822;SDS011;8528;49.976;11.858;2022-08-04T14:25:13;3.22;;;2.20;;
16822;SDS011;8528;49.976;11.858;2022-08-04T14:27:52;2.20;;;2.00;;
16822;SDS011;8528;49.976;11.858;2022-08-04T14:33:00;2.10;;;2.00;;
16822;SDS011;8528;49.976;11.858;2022-08-04T14:35:57;7.43;;;2.58;;
16822;SDS011;8528;49.976;11.858;2022-08-04T14:41:28;3.75;;;1.98;;
16822;SDS011;8528;49.976;11.858;2022-08-04T14:44:09;1.90;;;1.80;;
16822;SDS011;8528;49.976;11.858;2022-08-04T14:46:48;2.50;;;2.00;;
16822;SDS011;8528;49.976;11.858;2022-08-04T14:49:21;3.38;;;2.00;;
16822;SDS011;8528;49.976;11.858;2022-08-04T14:51:52;2.20;;;2.00;;
16822;SDS011;8528;49.976;11.858;2022-08-04T14:54:26;2.42;;;2.20;;
16822;SDS011;8528;49.976;11.858;2022-08-04T14:56:55;2.47;;;2.13;;
16822;SDS011;8528;49.976;11.858;2022-08-04T14:59:24;3.90;;;2.08;;
16822;SDS011;8528;49.976;11.858;2022-08-04T15:01:51;3.55;;;2.20;;
16822;SDS011;8528;49.976;11.858;2022-08-04T15:04:26;3.03;;;2.08;;
16822;SDS011;8528;49.976;11.858;2022-08-04T15:06:56;4.75;;;1.95;;
16822;SDS011;8528;49.976;11.858;2022-08-04T15:09:25;3.15;;;1.90;;
16822;SDS011;8528;49.976;11.858;2022-08-04T15:11:52;2.05;;;1.95;;
16822;SDS011;8528;49.976;11.858;2022-08-04T15:14:20;2.40;;;2.17;;
16822;SDS011;8528;49.976;11.858;2022-08-04T15:17:03;3.17;;;1.90;;
16822;SDS011;8528;49.976;11.858;2022-08-04T15:19:51;2.17;;;1.80;;
16822;SDS011;8528;49.976;11.858;2022-08-04T15:22:21;1.92;;;1.80;;
16822;SDS011;8528;49.976;11.858;2022-08-04T15:24:48;2.25;;;1.90;;
16822;SDS011;8528;49.976;11.858;2022-08-04T15:27:20;2.45;;;2.03;;
16822;SDS011;8528;49.976;11.858;2022-08-04T15:29:52;4.15;;;2.00;;
16822;SDS011;8528;49.976;11.858;2022-08-04T15:32:29;3.13;;;1.80;;
16822;SDS011;8528;49.976;11.858;2022-08-04T15:35:18;2.22;;;2.03;;
16822;SDS011;8528;49.976;11.858;2022-08-04T15:38:05;1.85;;;1.75;;
16822;SDS011;8528;49.976;11.858;2022-08-04T15:47:22;2.03;;;1.77;;
16822;SDS011;8528;49.976;11.858;2022-08-04T15:51:45;3.15;;;1.70;;
16822;SDS011;8528;49.976;11.858;2022-08-04T15:56:52;2.58;;;2.10;;
16822;SDS011;8528;49.976;11.858;2022-08-04T16:02:40;2.65;;;2.00;;
16822;SDS011;8528;49.976;11.858;2022-08-04T16:10:37;1.77;;;1.67;;
16822;SDS011;8528;49.976;11.858;2022-08-04T16:13:07;1.90;;;1.80;;
16822;SDS011;8528;49.976;11.858;2022-08-04T16:15:49;1.80;;;1.70;;
16822;SDS011;8528;49.976;11.858;2022-08-04T16:18:20;3.08;;;1.88;;
16822;SDS011;8528;49.976;11.858;2022-08-04T16:21:02;3.05;;;1.98;;
16822;SDS011;8528;49.976;11.858;2022-08-04T16:29:23;2.78;;;1.98;;
16822;SDS011;8528;49.976;11.858;2022-08-04T16:34:46;4.18;;;2.00;;
16822;SDS011;8528;49.976;11.858;2022-08-04T16:37:34;2.90;;;2.10;;
16822;SDS011;8528;49.976;11.858;2022-08-04T16:48:12;2.30;;;2.10;;
16822;SDS011;8528;49.976;11.858;2022-08-04T16:53:33;2.60;;;2.40;;
16822;SDS011;8528;49.976;11.858;2022-08-04T16:56:26;2.13;;;1.90;;
16822;SDS011;8528;49.976;11.858;2022-08-04T16:58:58;2.83;;;2.10;;
16822;SDS011;8528;49.976;11.858;2022-08-04T17:01:32;3.47;;;1.95;;
16822;SDS011;8528;49.976;11.858;2022-08-04T17:04:00;3.20;;;2.00;;
16822;SDS011;8528;49.976;11.858;2022-08-04T17:06:39;2.50;;;2.30;;
16822;SDS011;8528;49.976;11.858;2022-08-04T17:09:19;2.15;;;2.00;;
16822;SDS011;8528;49.976;11.858;2022-08-04T17:11:54;2.28;;;2.08;;
16822;SDS011;8528;49.976;11.858;2022-08-04T17:14:23;3.83;;;2.20;;
16822;SDS011;8528;49.976;11.858;2022-08-04T17:16:57;2.60;;;2.10;;
16822;SDS011;8528;49.976;11.858;2022-08-04T17:19:25;2.65;;;2.45;;
16822;SDS011;8528;49.976;11.858;2022-08-04T17:21:56;2.65;;;2.38;;
16822;SDS011;8528;49.976;11.858;2022-08-04T17:24:32;3.30;;;2.40;;
16822;SDS011;8528;49.976;11.858;2022-08-04T17:27:00;2.97;;;2.30;;
16822;SDS011;8528;49.976;11.858;2022-08-04T17:29:51;2.78;;;2.40;;
16822;SDS011;8528;49.976;11.858;2022-08-04T17:32:18;2.85;;;2.20;;
16822;SDS011;8528;49.976;11.858;2022-08-04T17:35:06;2.17;;;2.08;;
16822;SDS011;8528;49.976;11.858;2022-08-04T17:37:34;2.42;;;2.22;;
16822;SDS011;8528;49.976;11.858;2022-08-04T17:40:11;3.00;;;2.20;;
16822;SDS011;8528;49.976;11.858;2022-08-04T17:43:00;2.83;;;2.40;;
16822;SDS011;8528;49.976;11.858;2022-08-04T17:51:33;5.03;;;3.53;;
16822;SDS011;8528;49.976;11.858;2022-08-04T17:54:31;4.38;;;3.10;;
16822;SDS011;8528;49.976;11.858;2022-08-04T17:59:50;3.25;;;2.50;;
16822;SDS011;8528;49.976;11.858;2022-08-04T18:02:25;4.30;;;2.45;;
16822;SDS011;8528;49.976;11.858;2022-08-04T18:05:00;4.93;;;2.35;;
16822;SDS011;8528;49.976;11.858;2022-08-04T18:07:36;2.50;;;2.30;;
16822;SDS011;8528;49.976;11.858;2022-08-04T18:10:34;4.68;;;2.50;;
16822;SDS011;8528;49.976;11.858;2022-08-04T18:13:25;12.32;;;3.33;;
16822;SDS011;8528;49.976;11.858;2022-08-04T18:16:00;64.88;;;27.35;;
16822;SDS011;8528;49.976;11.858;2022-08-04T18:18:28;42.40;;;18.42;;
16822;SDS011;8528;49.976;11.858;2022-08-04T18:20:55;38.63;;;19.10;;
16822;SDS011;8528;49.976;11.858;2022-08-04T18:23:27;33.25;;;16.25;;
16822;SDS011;8528;49.976;11.858;2022-08-04T18:26:14;17.45;;;6.20;;
16822;SDS011;8528;49.976;11.858;2022-08-04T18:28:46;20.35;;;5.07;;
16822;SDS011;8528;49.976;11.858;2022-08-04T18:31:12;8.20;;;2.83;;
16822;SDS011;8528;49.976;11.858;2022-08-04T18:33:41;7.88;;;3.20;;
16822;SDS011;8528;49.976;11.858;2022-08-04T18:36:24;9.87;;;3.03;;
16822;SDS011;8528;49.976;11.858;2022-08-04T18:39:05;8.13;;;3.90;;
16822;SDS011;8528;49.976;11.858;2022-08-04T18:41:52;6.40;;;3.57;;
16822;SDS011;8528;49.976;11.858;2022-08-04T18:44:32;7.33;;;2.93;;
16822;SDS011;8528;49.976;11.858;2022-08-04T18:47:17;9.97;;;3.80;;
16822;SDS011;8528;49.976;11.858;2022-08-04T18:49:55;11.13;;;3.50;;
16822;SDS011;8528;49.976;11.858;2022-08-04T18:52:43;10.57;;;4.57;;
16822;SDS011;8528;49.976;11.858;2022-08-04T18:55:11;10.33;;;4.37;;
16822;SDS011;8528;49.976;11.858;2022-08-04T18:57:59;4.50;;;3.77;;
16822;SDS011;8528;49.976;11.858;2022-08-04T19:00:33;13.27;;;3.67;;
16822;SDS011;8528;49.976;11.858;2022-08-04T19:03:01;17.07;;;3.80;;
16822;SDS011;8528;49.976;11.858;2022-08-04T19:05:28;9.77;;;3.20;;
16822;SDS011;8528;49.976;11.858;2022-08-04T19:08:06;6.83;;;3.47;;
16822;SDS011;8528;49.976;11.858;2022-08-04T19:10:56;7.03;;;3.43;;
16822;SDS011;8528;49.976;11.858;2022-08-04T19:13:25;4.93;;;3.43;;
16822;SDS011;8528;49.976;11.858;2022-08-04T19:15:53;7.13;;;3.90;;
16822;SDS011;8528;49.976;11.858;2022-08-04T19:18:29;6.13;;;3.27;;
16822;SDS011;8528;49.976;11.858;2022-08-04T19:21:01;6.40;;;4.00;;
16822;SDS011;8528;49.976;11.858;2022-08-04T19:23:31;5.43;;;3.47;;
16822;SDS011;8528;49.976;11.858;2022-08-04T19:26:19;6.33;;;3.40;;
16822;SDS011;8528;49.976;11.858;2022-08-04T19:28:53;6.23;;;3.33;;
16822;SDS011;8528;49.976;11.858;2022-08-04T19:31:21;4.00;;;2.73;;
16822;SDS011;8528;49.976;11.858;2022-08-04T19:34:08;4.33;;;3.13;;
16822;SDS011;8528;49.976;11.858;2022-08-04T19:36:36;3.43;;;3.13;;
16822;SDS011;8528;49.976;11.858;2022-08-04T19:39:11;2.90;;;2.70;;
16822;SDS011;8528;49.976;11.858;2022-08-04T19:41:38;3.73;;;3.30;;
16822;SDS011;8528;49.976;11.858;2022-08-04T19:44:25;4.90;;;3.30;;
16822;SDS011;8528;49.976;11.858;2022-08-04T19:46:55;3.43;;;2.90;;
16822;SDS011;8528;49.976;11.858;2022-08-04T19:49:26;3.57;;;3.27;;
16822;SDS011;8528;49.976;11.858;2022-08-04T19:52:19;4.33;;;2.87;;
16822;SDS011;8528;49.976;11.858;2022-08-04T19:55:01;5.70;;;3.97;;
16822;SDS011;8528;49.976;11.858;2022-08-04T19:57:35;6.10;;;3.57;;
16822;SDS011;8528;49.976;11.858;2022-08-04T20:00:06;6.47;;;3.43;;
16822;SDS011;8528;49.976;11.858;2022-08-04T20:02:35;5.10;;;3.37;;
16822;SDS011;8528;49.976;11.858;2022-08-04T20:05:03;3.93;;;3.37;;
16822;SDS011;8528;49.976;11.858;2022-08-04T20:07:34;3.13;;;2.93;;
16822;SDS011;8528;49.976;11.858;2022-08-04T20:10:02;4.97;;;3.33;;
16822;SDS011;8528;49.976;11.858;2022-08-04T20:12:30;4.70;;;3.37;;
16822;SDS011;8528;49.976;11.858;2022-08-04T20:15:07;5.57;;;5.00;;
16822;SDS011;8528;49.976;11.858;2022-08-04T20:17:38;5.87;;;4.10;;
16822;SDS011;8528;49.976;11.858;2022-08-04T20:20:27;7.53;;;3.50;;
16822;SDS011;8528;49.976;11.858;2022-08-04T20:23:04;3.20;;;2.90;;
16822;SDS011;8528;49.976;11.858;2022-08-04T20:25:35;3.50;;;3.20;;
16822;SDS011;8528;49.976;11.858;2022-08-04T20:28:04;3.80;;;3.43;;
16822;SDS011;8528;49.976;11.858;2022-08-04T20:30:31;3.93;;;3.53;;
16822;SDS011;8528;49.976;11.858;2022-08-04T20:33:02;5.33;;;3.03;;
16822;SDS011;8528;49.976;11.858;2022-08-04T20:35:32;4.17;;;3.77;;
16822;SDS011;8528;49.976;11.858;2022-08-04T20:38:19;3.30;;;3.00;;
16822;SDS011;8528;49.976;11.858;2022-08-04T20:40:59;3.63;;;3.37;;
16822;SDS011;8528;49.976;11.858;2022-08-04T20:43:26;7.87;;;3.30;;
16822;SDS011;8528;49.976;11.858;2022-08-04T20:45:56;4.23;;;3.30;;
16822;SDS011;8528;49.976;11.858;2022-08-04T20:48:28;3.83;;;3.53;;
16822;SDS011;8528;49.976;11.858;2022-08-04T20:50:59;3.87;;;3.43;;
16822;SDS011;8528;49.976;11.858;2022-08-04T20:53:26;5.30;;;3.93;;
16822;SDS011;8528;49.976;11.858;2022-08-04T20:56:13;3.70;;;3.40;;
16822;SDS011;8528;49.976;11.858;2022-08-04T20:58:56;4.00;;;3.63;;